createdAt,value
2019-02-23T00:00:38.590Z,9.33
2019-02-23T00:03:07.840Z,9.34
2019-02-23T00:05:37.073Z,9.34
2019-02-23T00:08:06.343Z,9.23
2019-02-23T00:10:35.586Z,9.24
2019-02-23T00:13:04.859Z,9.27
2019-02-23T00:15:34.148Z,9.25
2019-02-23T00:18:03.465Z,9.27
2019-02-23T00:20:32.693Z,9.23
2019-02-23T00:23:02.103Z,9.09
2019-02-23T00:25:31.624Z,9.11
2019-02-23T00:28:00.918Z,9.13
2019-02-23T00:30:30.181Z,9.19
2019-02-23T00:32:59.447Z,9.19
2019-02-23T00:35:28.862Z,9.18
2019-02-23T00:37:58.099Z,9.03
2019-02-23T00:40:27.359Z,9.16
2019-02-23T00:42:56.655Z,9.14
2019-02-23T00:45:25.923Z,9.11
2019-02-23T00:47:55.245Z,9.14
2019-02-23T00:50:24.531Z,9.32
2019-02-23T00:52:53.851Z,9.05
2019-02-23T00:55:23.083Z,9.05
2019-02-23T00:57:52.348Z,9.21
2019-02-23T01:00:21.706Z,9.14
2019-02-23T01:02:51.034Z,9.07
2019-02-23T01:05:20.289Z,8.99
2019-02-23T01:07:49.579Z,9.04
2019-02-23T01:10:19.650Z,8.91
2019-02-23T01:12:49.433Z,8.85
2019-02-23T01:15:18.775Z,8.85
2019-02-23T01:17:48.200Z,8.78
2019-02-23T01:20:17.475Z,8.61
2019-02-23T01:22:46.746Z,8.75
2019-02-23T01:25:16.299Z,8.62
2019-02-23T01:27:45.725Z,8.79
2019-02-23T01:30:15.165Z,8.77
2019-02-23T01:32:44.573Z,8.70
2019-02-23T01:35:13.959Z,8.53
2019-02-23T01:37:43.339Z,8.56
2019-02-23T01:40:12.689Z,8.54
2019-02-23T01:42:42.058Z,8.53
2019-02-23T01:45:11.374Z,8.60
2019-02-23T01:47:40.829Z,8.51
2019-02-23T01:50:10.743Z,8.52
2019-02-23T01:52:40.055Z,8.55
2019-02-23T01:55:09.628Z,8.60
2019-02-23T01:57:39.023Z,8.67
2019-02-23T02:00:13.006Z,8.60
2019-02-23T02:02:42.967Z,8.65
2019-02-23T02:05:12.688Z,8.44
2019-02-23T02:07:42.055Z,8.48
2019-02-23T02:10:11.784Z,8.55
2019-02-23T02:12:41.161Z,8.54
2019-02-23T02:15:12.685Z,8.42
2019-02-23T02:17:42.175Z,8.45
2019-02-23T02:20:11.747Z,8.34
2019-02-23T02:22:41.126Z,8.26
2019-02-23T02:25:10.365Z,8.30
2019-02-23T02:27:39.655Z,8.28
2019-02-23T02:30:10.954Z,8.19
2019-02-23T02:32:40.197Z,8.26
2019-02-23T02:35:10.741Z,8.09
2019-02-23T02:37:40.093Z,8.14
2019-02-23T02:40:09.861Z,8.05
2019-02-23T02:42:39.222Z,8.03
2019-02-23T02:45:10.520Z,8.12
2019-02-23T02:47:39.900Z,8.05
2019-02-23T02:50:23.271Z,8.08
2019-02-23T02:52:41.306Z,8.18
2019-02-23T02:55:10.737Z,8.06
2019-02-23T02:57:40.097Z,8.08
2019-02-23T03:00:11.914Z,8.08
2019-02-23T03:02:41.232Z,7.95
2019-02-23T03:05:10.905Z,7.85
2019-02-23T03:07:40.154Z,7.91
2019-02-23T03:10:09.513Z,7.86
2019-02-23T03:12:38.762Z,7.90
2019-02-23T03:15:08.287Z,7.77
2019-02-23T03:17:37.551Z,7.74
2019-02-23T03:20:08.461Z,7.84
2019-02-23T03:22:37.683Z,7.81
2019-02-23T03:25:07.701Z,7.78
2019-02-23T03:27:36.975Z,7.60
2019-02-23T03:30:09.184Z,7.79
2019-02-23T03:32:38.459Z,7.65
2019-02-23T03:35:07.923Z,7.63
2019-02-23T03:37:37.145Z,7.57
2019-02-23T03:40:08.048Z,7.69
2019-02-23T03:42:37.619Z,7.69
2019-02-23T03:45:07.327Z,7.69
2019-02-23T03:47:36.527Z,7.68
2019-02-23T03:50:07.357Z,7.67
2019-02-23T03:52:36.531Z,7.68
2019-02-23T03:55:06.278Z,7.64
2019-02-23T03:57:35.468Z,7.54
2019-02-23T04:00:06.565Z,7.53
2019-02-23T04:02:35.758Z,7.55
2019-02-23T04:05:05.708Z,7.72
2019-02-23T04:07:34.881Z,7.56
2019-02-23T04:10:05.619Z,7.52
2019-02-23T04:12:34.829Z,7.26
2019-02-23T04:15:04.823Z,7.64
2019-02-23T04:17:33.920Z,7.52
2019-02-23T04:20:03.168Z,7.43
2019-02-23T04:22:32.273Z,7.55
2019-02-23T04:25:01.562Z,7.58
2019-02-23T04:27:30.655Z,7.61
2019-02-23T04:29:59.815Z,7.62
2019-02-23T04:32:28.950Z,7.61
2019-02-23T04:34:58.228Z,7.68
2019-02-23T04:37:27.334Z,7.57
2019-02-23T04:39:56.539Z,7.70
2019-02-23T04:42:25.724Z,7.61
2019-02-23T04:44:54.853Z,7.61
2019-02-23T04:47:23.958Z,7.60
2019-02-23T04:49:54.582Z,7.52
2019-02-23T04:52:23.767Z,7.59
2019-02-23T04:54:52.983Z,7.51
2019-02-23T04:57:22.182Z,7.56
2019-02-23T04:59:51.415Z,7.56
2019-02-23T05:02:20.608Z,7.43
2019-02-23T05:04:49.843Z,7.48
2019-02-23T05:07:19.102Z,7.39
2019-02-23T05:09:48.282Z,7.46
2019-02-23T05:12:17.495Z,7.32
2019-02-23T05:14:46.764Z,7.32
2019-02-23T05:17:15.979Z,7.38
2019-02-23T05:19:45.316Z,7.26
2019-02-23T05:22:14.622Z,7.22
2019-02-23T05:24:43.859Z,7.08
2019-02-23T05:27:13.097Z,7.05
2019-02-23T05:29:42.343Z,7.11
2019-02-23T05:32:11.589Z,6.97
2019-02-23T05:34:40.930Z,7.09
2019-02-23T05:37:10.116Z,6.86
2019-02-23T05:39:39.371Z,6.95
2019-02-23T05:42:08.709Z,6.96
2019-02-23T05:44:37.950Z,7.00
2019-02-23T05:47:07.178Z,7.05
2019-02-23T05:49:37.104Z,6.99
2019-02-23T05:52:06.558Z,7.12
2019-02-23T05:54:35.870Z,7.02
2019-02-23T05:57:05.085Z,6.85
2019-02-23T05:59:34.240Z,6.73
2019-02-23T06:02:03.483Z,6.86
2019-02-23T06:04:32.833Z,6.86
2019-02-23T06:07:02.080Z,6.77
2019-02-23T06:09:31.311Z,6.68
2019-02-23T06:12:00.566Z,6.69
2019-02-23T06:14:29.769Z,6.63
2019-02-23T06:16:59.052Z,6.59
2019-02-23T06:19:28.298Z,6.62
2019-02-23T06:21:57.578Z,6.62
2019-02-23T06:24:26.974Z,6.64
2019-02-23T06:26:56.138Z,6.46
2019-02-23T06:29:25.314Z,6.56
2019-02-23T06:31:54.574Z,6.53
2019-02-23T06:34:23.823Z,6.68
2019-02-23T06:36:53.136Z,6.62
2019-02-23T06:39:22.408Z,6.73
2019-02-23T06:41:51.655Z,6.68
2019-02-23T06:44:20.982Z,6.68
2019-02-23T06:46:50.249Z,6.68
2019-02-23T06:49:19.486Z,6.72
2019-02-23T06:51:48.834Z,6.69
2019-02-23T06:54:18.045Z,6.68
2019-02-23T06:56:47.618Z,6.69
2019-02-23T06:59:16.860Z,6.67
2019-02-23T07:01:46.138Z,6.56
2019-02-23T07:04:15.366Z,6.44
2019-02-23T07:06:44.657Z,6.59
2019-02-23T07:09:14.345Z,6.68
2019-02-23T07:11:43.589Z,6.44
2019-02-23T07:14:13.043Z,6.64
2019-02-23T07:16:42.266Z,6.74
2019-02-23T07:19:11.598Z,6.83
2019-02-23T07:21:40.890Z,6.92
2019-02-23T07:24:10.088Z,7.03
2019-02-23T07:26:39.359Z,6.93
2019-02-23T07:29:08.612Z,6.92
2019-02-23T07:31:37.859Z,6.87
2019-02-23T07:34:07.134Z,6.84
2019-02-23T07:36:36.401Z,7.04
2019-02-23T07:39:06.467Z,7.02
2019-02-23T07:41:35.711Z,7.11
2019-02-23T07:44:05.029Z,6.97
2019-02-23T07:46:34.275Z,7.30
2019-02-23T07:49:03.571Z,7.72
2019-02-23T07:51:32.919Z,8.14
2019-02-23T07:54:02.351Z,7.84
2019-02-23T07:56:31.701Z,8.12
2019-02-23T07:59:00.941Z,7.99
2019-02-23T08:01:30.172Z,8.08
2019-02-23T08:03:59.450Z,8.19
2019-02-23T08:06:28.728Z,8.20
2019-02-23T08:08:57.887Z,7.94
2019-02-23T08:11:27.171Z,8.21
2019-02-23T08:13:56.443Z,8.63
2019-02-23T08:16:25.669Z,8.52
2019-02-23T08:18:54.833Z,8.96
2019-02-23T08:21:24.158Z,8.62
2019-02-23T08:23:53.425Z,8.46
2019-02-23T08:26:22.699Z,8.87
2019-02-23T08:28:51.943Z,8.62
2019-02-23T08:31:21.182Z,8.75
2019-02-23T08:33:50.439Z,8.52
2019-02-23T08:36:19.722Z,8.88
2019-02-23T08:38:48.971Z,9.02
2019-02-23T08:41:18.226Z,9.03
2019-02-23T08:43:47.434Z,9.13
2019-02-23T08:46:16.764Z,9.39
2019-02-23T08:48:46.114Z,9.33
2019-02-23T08:51:15.267Z,9.76
2019-02-23T08:53:44.579Z,9.61
2019-02-23T08:56:13.831Z,9.88
2019-02-23T08:58:43.150Z,11.98
2019-02-23T09:01:12.452Z,10.89
2019-02-23T09:03:41.765Z,12.08
2019-02-23T09:06:11.110Z,11.33
2019-02-23T09:08:40.335Z,11.65
2019-02-23T09:11:09.624Z,10.91
2019-02-23T09:13:38.875Z,11.03
2019-02-23T09:16:08.065Z,12.08
2019-02-23T09:18:37.333Z,11.62
2019-02-23T09:21:06.594Z,12.33
2019-02-23T09:23:35.862Z,11.32
2019-02-23T09:26:05.166Z,11.21
2019-02-23T09:28:34.385Z,11.49
2019-02-23T09:31:03.718Z,10.89
2019-02-23T09:33:32.970Z,11.37
2019-02-23T09:36:02.293Z,10.74
2019-02-23T09:38:31.530Z,9.66
2019-02-23T09:41:00.814Z,8.98
2019-02-23T09:43:30.053Z,8.96
2019-02-23T09:45:59.319Z,8.81
2019-02-23T09:48:28.588Z,8.92
2019-02-23T09:51:01.098Z,9.09
2019-02-23T09:53:30.400Z,9.01
2019-02-23T09:55:59.635Z,9.09
2019-02-23T09:58:31.177Z,9.09
2019-02-23T10:00:59.811Z,9.12
2019-02-23T10:03:29.053Z,9.22
2019-02-23T10:05:58.322Z,9.38
2019-02-23T10:08:27.560Z,9.39
2019-02-23T10:10:57.623Z,9.32
2019-02-23T10:13:27.056Z,9.37
2019-02-23T10:15:56.368Z,9.27
2019-02-23T10:18:25.620Z,9.27
2019-02-23T10:20:54.876Z,9.17
2019-02-23T10:23:24.106Z,9.29
2019-02-23T10:25:53.434Z,9.25
2019-02-23T10:28:22.667Z,9.38
2019-02-23T10:30:51.932Z,9.40
2019-02-23T10:33:21.189Z,9.34
2019-02-23T10:35:50.422Z,9.42
2019-02-23T10:38:19.698Z,9.48
2019-02-23T10:40:48.967Z,9.42
2019-02-23T10:43:18.192Z,9.49
2019-02-23T10:45:47.463Z,9.51
2019-02-23T10:48:16.702Z,9.39
2019-02-23T10:50:45.979Z,9.49
2019-02-23T10:53:15.316Z,9.49
2019-02-23T10:55:44.615Z,9.60
2019-02-23T10:58:13.880Z,9.71
2019-02-23T11:00:43.158Z,9.93
2019-02-23T11:03:12.287Z,9.97
2019-02-23T11:05:41.521Z,10.02
2019-02-23T11:08:10.881Z,10.02
2019-02-23T11:10:40.265Z,10.07
2019-02-23T11:13:09.613Z,10.11
2019-02-23T11:15:38.893Z,10.24
2019-02-23T11:18:08.063Z,10.20
2019-02-23T11:20:37.579Z,10.20
2019-02-23T11:23:06.977Z,10.25
2019-02-23T11:25:36.281Z,10.42
2019-02-23T11:28:05.582Z,10.42
2019-02-23T11:30:34.941Z,10.33
2019-02-23T11:33:04.240Z,10.45
2019-02-23T11:35:33.573Z,10.51
2019-02-23T11:38:02.773Z,10.54
2019-02-23T11:40:32.015Z,10.54
2019-02-23T11:43:01.258Z,10.68
2019-02-23T11:45:31.141Z,10.72
2019-02-23T11:48:00.532Z,10.78
2019-02-23T11:50:29.809Z,10.78
2019-02-23T11:52:59.108Z,10.83
2019-02-23T11:55:28.316Z,10.84
2019-02-23T11:57:57.587Z,10.86
2019-02-23T12:00:26.881Z,10.88
2019-02-23T12:02:56.312Z,10.88
2019-02-23T12:05:25.573Z,11.02
2019-02-23T12:07:54.840Z,11.09
2019-02-23T12:10:24.187Z,11.06
2019-02-23T12:12:53.619Z,11.04
2019-02-23T12:15:22.884Z,10.94
2019-02-23T12:17:54.949Z,11.00
2019-02-23T12:20:24.234Z,11.05
2019-02-23T12:22:53.478Z,11.07
2019-02-23T12:25:22.721Z,11.07
2019-02-23T12:27:52.038Z,11.14
2019-02-23T12:30:21.293Z,11.20
2019-02-23T12:32:50.570Z,11.20
2019-02-23T12:35:28.442Z,11.17
2019-02-23T12:38:00.802Z,11.16
2019-02-23T12:40:29.997Z,11.26
2019-02-23T12:42:59.350Z,11.32
2019-02-23T12:45:28.595Z,11.36
2019-02-23T12:47:57.844Z,11.40
2019-02-23T12:50:27.098Z,11.37
2019-02-23T12:52:56.434Z,11.36
2019-02-23T12:55:25.779Z,11.49
2019-02-23T12:57:55.107Z,11.61
2019-02-23T13:00:24.934Z,11.63
2019-02-23T13:02:56.030Z,11.55
2019-02-23T13:05:25.278Z,11.76
2019-02-23T13:07:54.604Z,11.80
2019-02-23T13:10:24.034Z,11.66
2019-02-23T13:12:59.330Z,11.75
2019-02-23T13:15:37.476Z,11.90
2019-02-23T13:18:22.112Z,11.87
2019-02-23T13:21:00.523Z,11.92
2019-02-23T13:23:44.697Z,11.88
2019-02-23T13:26:22.917Z,11.87
2019-02-23T13:29:00.813Z,11.72
2019-02-23T13:31:37.860Z,11.99
2019-02-23T13:34:15.906Z,12.10
2019-02-23T13:37:01.674Z,12.10
2019-02-23T13:39:36.436Z,12.00
2019-02-23T13:42:37.881Z,12.08
2019-02-23T13:45:31.257Z,12.17
2019-02-23T13:48:18.588Z,12.23
2019-02-23T13:50:52.644Z,12.12
2019-02-23T13:53:33.896Z,12.09
2019-02-23T13:56:14.549Z,12.04
2019-02-23T13:58:49.207Z,12.15
2019-02-23T14:01:43.793Z,12.18
2019-02-23T14:04:47.963Z,12.09
2019-02-23T14:07:27.809Z,12.07
2019-02-23T14:10:16.603Z,12.05
2019-02-23T14:13:23.667Z,12.22
2019-02-23T14:16:01.979Z,12.30
2019-02-23T14:18:58.000Z,12.17
2019-02-23T14:21:50.937Z,12.17
2019-02-23T14:24:50.096Z,12.21
2019-02-23T14:27:40.430Z,12.30
2019-02-23T14:30:32.364Z,12.30
2019-02-23T14:33:30.086Z,12.26
2019-02-23T14:36:10.926Z,12.30
2019-02-23T14:38:49.366Z,12.25
2019-02-23T14:41:38.040Z,12.25
2019-02-23T14:44:17.119Z,12.24
2019-02-23T14:46:57.951Z,12.24
2019-02-23T14:49:50.155Z,12.12
2019-02-23T14:52:34.348Z,12.10
2019-02-23T14:55:22.903Z,12.20
2019-02-23T14:58:20.356Z,12.22
2019-02-23T15:01:13.644Z,12.32
2019-02-23T15:04:00.595Z,12.38
2019-02-23T15:06:55.637Z,12.32
2019-02-23T15:09:42.494Z,12.18
2019-02-23T15:12:20.411Z,12.18
2019-02-23T15:15:04.380Z,12.19
2019-02-23T15:17:51.896Z,12.25
2019-02-23T15:20:42.035Z,12.04
2019-02-23T15:23:26.350Z,12.05
2019-02-23T15:26:10.443Z,12.05
2019-02-23T15:28:51.371Z,12.14
2019-02-23T15:31:46.230Z,12.15
2019-02-23T15:34:36.142Z,12.09
2019-02-23T15:37:30.951Z,12.13
2019-02-23T15:40:23.576Z,12.04
2019-02-23T15:43:07.641Z,12.01
2019-02-23T15:45:56.482Z,11.94
2019-02-23T15:48:34.421Z,12.02
2019-02-23T15:51:03.882Z,11.98
2019-02-23T15:53:33.240Z,11.90
2019-02-23T15:56:02.535Z,11.94
2019-02-23T15:58:32.041Z,11.99
2019-02-23T16:01:01.383Z,11.93
2019-02-23T16:03:30.636Z,11.88
2019-02-23T16:05:59.973Z,11.86
2019-02-23T16:08:29.312Z,11.89
2019-02-23T16:10:58.603Z,11.84
2019-02-23T16:13:27.875Z,11.82
2019-02-23T16:15:57.275Z,11.86
2019-02-23T16:18:26.611Z,11.83
2019-02-23T16:20:55.935Z,11.83
2019-02-23T16:23:34.979Z,11.73
2019-02-23T16:25:56.143Z,11.77
2019-02-23T16:28:25.383Z,11.76
2019-02-23T16:30:55.703Z,11.76
2019-02-23T16:33:25.019Z,11.76
2019-02-23T16:35:54.257Z,11.72
2019-02-23T16:38:23.499Z,11.72
2019-02-23T16:40:52.815Z,11.70
2019-02-23T16:43:22.081Z,11.59
2019-02-23T16:45:51.325Z,11.62
2019-02-23T16:48:20.674Z,11.56
2019-02-23T16:50:49.924Z,11.55
2019-02-23T16:53:19.138Z,11.52
2019-02-23T16:55:51.114Z,11.57
2019-02-23T16:58:19.522Z,11.53
2019-02-23T17:00:48.768Z,11.48
2019-02-23T17:03:18.480Z,11.47
2019-02-23T17:05:47.743Z,11.45
2019-02-23T17:08:17.043Z,11.41
2019-02-23T17:10:46.446Z,11.41
2019-02-23T17:13:20.112Z,11.32
2019-02-23T17:15:49.349Z,11.09
2019-02-23T17:18:18.642Z,11.26
2019-02-23T17:20:47.909Z,11.21
2019-02-23T17:23:17.218Z,11.22
2019-02-23T17:25:46.594Z,11.25
2019-02-23T17:28:15.859Z,11.19
2019-02-23T17:30:45.126Z,11.21
2019-02-23T17:33:14.411Z,11.13
2019-02-23T17:35:43.738Z,11.12
2019-02-23T17:38:16.863Z,11.11
2019-02-23T17:40:44.122Z,11.12
2019-02-23T17:43:13.280Z,11.12
2019-02-23T17:45:42.550Z,11.14
2019-02-23T17:48:11.957Z,11.11
2019-02-23T17:50:41.262Z,11.09
2019-02-23T17:53:10.788Z,11.06
2019-02-23T17:55:40.104Z,11.05
2019-02-23T17:58:09.410Z,11.05
2019-02-23T18:00:38.653Z,10.95
2019-02-23T18:03:07.950Z,10.91
2019-02-23T18:05:37.192Z,10.88
2019-02-23T18:08:06.531Z,10.89
2019-02-23T18:10:35.770Z,10.80
2019-02-23T18:13:05.166Z,10.81
2019-02-23T18:15:34.447Z,10.77
2019-02-23T18:18:03.713Z,10.71
2019-02-23T18:20:33.013Z,10.59
2019-02-23T18:23:02.325Z,10.56
2019-02-23T18:25:31.589Z,10.53
2019-02-23T18:28:00.872Z,10.44
2019-02-23T18:30:30.134Z,10.44
2019-02-23T18:32:59.382Z,10.41
2019-02-23T18:35:28.613Z,10.45
2019-02-23T18:37:57.886Z,10.43
2019-02-23T18:40:27.237Z,10.37
2019-02-23T18:42:56.581Z,10.35
2019-02-23T18:45:27.319Z,10.35
2019-02-23T18:47:56.613Z,10.29
2019-02-23T18:50:25.854Z,10.30
2019-02-23T18:52:55.167Z,10.25
2019-02-23T18:55:24.449Z,10.33
2019-02-23T18:57:53.731Z,10.33
2019-02-23T19:00:24.583Z,10.30
2019-02-23T19:02:54.015Z,10.30
2019-02-23T19:05:23.283Z,10.15
2019-02-23T19:07:52.516Z,10.15
2019-02-23T19:10:21.759Z,10.08
2019-02-23T19:12:51.099Z,10.08
2019-02-23T19:15:21.344Z,10.08
2019-02-23T19:17:50.594Z,10.12
2019-02-23T19:20:19.875Z,10.04
2019-02-23T19:22:49.109Z,10.04
2019-02-23T19:25:18.385Z,10.01
2019-02-23T19:27:49.480Z,9.94
2019-02-23T19:30:18.853Z,9.97
2019-02-23T19:32:50.853Z,9.96
2019-02-23T19:35:21.046Z,9.94
2019-02-23T19:37:50.388Z,9.94
2019-02-23T19:40:19.659Z,9.91
2019-02-23T19:42:48.992Z,9.88
2019-02-23T19:45:18.312Z,9.86
2019-02-23T19:47:47.497Z,9.83
2019-02-23T19:50:22.910Z,9.79
2019-02-23T19:52:52.088Z,9.67
2019-02-23T19:55:21.269Z,9.77
2019-02-23T19:57:50.486Z,9.74
2019-02-23T20:00:19.744Z,9.75
2019-02-23T20:02:48.948Z,9.63
2019-02-23T20:05:18.184Z,9.63
2019-02-23T20:07:47.426Z,9.60
2019-02-23T20:10:16.726Z,9.68
2019-02-23T20:12:45.955Z,9.63
2019-02-23T20:15:15.383Z,9.63
2019-02-23T20:17:44.666Z,9.61
2019-02-23T20:20:14.042Z,9.55
2019-02-23T20:22:43.500Z,9.55
2019-02-23T20:25:12.898Z,9.43
2019-02-23T20:27:42.152Z,9.51
2019-02-23T20:30:12.439Z,9.38
2019-02-23T20:32:41.737Z,9.45
2019-02-23T20:35:10.967Z,9.39
2019-02-23T20:37:41.726Z,9.33
2019-02-23T20:40:11.029Z,9.39
2019-02-23T20:42:58.493Z,9.31
2019-02-23T20:45:27.777Z,9.32
2019-02-23T20:47:57.087Z,9.22
2019-02-23T20:50:26.423Z,9.25
2019-02-23T20:52:55.692Z,9.13
2019-02-23T20:55:24.923Z,9.14
2019-02-23T20:57:54.184Z,9.10
2019-02-23T21:00:23.523Z,9.08
2019-02-23T21:02:53.066Z,9.07
2019-02-23T21:05:22.298Z,9.07
2019-02-23T21:07:51.556Z,9.09
2019-02-23T21:10:30.819Z,8.74
2019-02-23T21:13:00.117Z,8.98
2019-02-23T21:15:29.478Z,8.99
2019-02-23T21:17:58.714Z,8.88
2019-02-23T21:20:28.086Z,8.95
2019-02-23T21:22:57.428Z,8.94
2019-02-23T21:25:26.658Z,8.94
2019-02-23T21:27:55.859Z,8.70
2019-02-23T21:30:25.084Z,8.87
2019-02-23T21:32:55.958Z,8.78
2019-02-23T21:35:25.145Z,8.81
2019-02-23T21:37:54.560Z,8.80
2019-02-23T21:40:23.826Z,8.83
2019-02-23T21:42:53.046Z,8.72
2019-02-23T21:45:22.248Z,8.62
2019-02-23T21:47:52.967Z,8.72
2019-02-23T21:50:22.178Z,8.53
2019-02-23T21:52:51.432Z,8.73
2019-02-23T21:55:20.671Z,8.76
2019-02-23T21:57:49.926Z,8.67
2019-02-23T22:00:19.207Z,8.62
2019-02-23T22:02:48.449Z,8.63
2019-02-23T22:05:17.737Z,8.71
2019-02-23T22:07:46.927Z,8.68
2019-02-23T22:10:16.163Z,8.71
2019-02-23T22:12:45.458Z,8.68
2019-02-23T22:15:14.648Z,8.68
2019-02-23T22:17:44.143Z,8.55
2019-02-23T22:20:13.376Z,8.57
2019-02-23T22:22:42.634Z,8.57
2019-02-23T22:25:11.794Z,8.59
2019-02-23T22:27:41.030Z,8.61
2019-02-23T22:30:11.781Z,8.65
2019-02-23T22:32:40.935Z,8.63
2019-02-23T22:35:10.228Z,8.60
2019-02-23T22:37:39.409Z,8.61
2019-02-23T22:40:08.591Z,8.47
2019-02-23T22:42:37.807Z,8.59
2019-02-23T22:45:08.348Z,8.44
2019-02-23T22:47:37.517Z,8.50
2019-02-23T22:50:08.470Z,8.42
2019-02-23T22:52:37.659Z,8.46
2019-02-23T22:55:06.982Z,8.48
2019-02-23T22:57:40.719Z,8.42
2019-02-23T23:00:10.602Z,8.44
2019-02-23T23:02:39.827Z,8.48
2019-02-23T23:05:09.091Z,8.45
2019-02-23T23:07:38.374Z,8.30
2019-02-23T23:10:08.328Z,8.46
2019-02-23T23:12:37.504Z,8.49
2019-02-23T23:15:07.966Z,8.38
2019-02-23T23:17:37.150Z,8.36
2019-02-23T23:20:08.097Z,8.41
2019-02-23T23:22:37.292Z,8.43
2019-02-23T23:25:07.411Z,8.32
2019-02-23T23:27:36.590Z,8.36
2019-02-23T23:30:08.028Z,8.39
2019-02-23T23:32:37.220Z,8.32
2019-02-23T23:35:06.467Z,8.38
2019-02-23T23:37:35.679Z,8.25
2019-02-23T23:40:05.897Z,8.16
2019-02-23T23:42:35.145Z,8.33
2019-02-23T23:45:05.802Z,8.13
2019-02-23T23:47:35.052Z,8.16
2019-02-23T23:50:05.724Z,8.22
2019-02-23T23:52:34.932Z,8.17
2019-02-23T23:55:04.578Z,8.18
2019-02-23T23:57:33.772Z,8.16
